Terminal Aerodrome Forecast
Issued by NWS Omaha/Valley, NE

Home | Current Version | Previous Version | Graphics & Text | Print | Product List | Glossary On
Versions: 1 2 3 4 5 6 7 8 9 10 11 12 13 14 15 16 17 18 19 20 21 22 23 24 25 26 27 28 29 30 31 32 33 34 35 36
000
FTUS43 KOAX 282332
TAFOFK
TAF
KOFK 282332Z 2900/2924 31015G25KT P6SM SCT250
     FM290300 33029G38KT P6SM SCT050 BKN100
     FM290600 33029G38KT P6SM SCT015 OVC050
      TEMPO 2907/2910 OVC015
     FM291000 33027G35KT P6SM OVC015
     FM291600 34023G30KT P6SM SCT250=

USA.gov is the U.S. government's official web portal to all federal, state and local government web resources and services.